createdAt,value
2017-11-06T08:51:49.880Z,35.30
2017-11-06T08:54:20.630Z,23.53
2017-11-06T08:56:51.405Z,26.53
2017-11-06T08:59:22.181Z,32.33
2017-11-06T09:01:52.972Z,47.43
2017-11-06T09:04:23.708Z,75.67
2017-11-06T09:06:54.489Z,147.57
2017-11-06T09:09:25.253Z,155.60
2017-11-06T09:11:56.016Z,151.03
2017-11-06T09:14:26.801Z,127.07
2017-11-06T09:16:57.560Z,150.77
2017-11-06T09:19:28.337Z,146.30
2017-11-06T09:21:59.110Z,122.23
2017-11-06T09:24:29.872Z,111.50
2017-11-06T09:27:00.663Z,107.63
2017-11-06T09:29:31.425Z,110.30
2017-11-06T09:32:02.206Z,112.03
2017-11-06T09:34:32.960Z,99.77
2017-11-06T09:37:03.749Z,87.87
2017-11-06T09:39:34.502Z,84.40
2017-11-06T09:42:05.264Z,80.83
2017-11-06T09:44:36.053Z,69.17
2017-11-06T09:47:06.828Z,68.30
2017-11-06T09:49:37.613Z,66.63
2017-11-06T09:52:08.382Z,57.10
2017-11-06T09:54:39.188Z,51.40
2017-11-06T09:57:09.943Z,60.50
2017-11-06T09:59:40.751Z,46.80
2017-11-06T10:02:11.515Z,49.93
2017-11-06T10:04:42.309Z,37.53
2017-11-06T10:07:13.068Z,31.63
2017-11-06T10:09:43.865Z,44.20
2017-11-06T10:12:14.644Z,31.30
2017-11-06T10:14:45.397Z,33.77
2017-11-06T10:17:16.184Z,30.43
2017-11-06T10:19:46.972Z,29.70
2017-11-06T10:22:17.742Z,28.60
2017-11-06T10:24:48.513Z,30.70
2017-11-06T10:27:19.273Z,30.00
2017-11-06T10:29:50.045Z,26.67
2017-11-06T10:32:20.825Z,29.23
2017-11-06T10:34:51.597Z,21.80
2017-11-06T10:37:22.363Z,20.83
2017-11-06T10:39:53.133Z,20.87
2017-11-06T10:42:23.891Z,20.23
2017-11-06T10:44:54.656Z,18.47
2017-11-06T10:47:25.436Z,22.37
2017-11-06T10:49:56.189Z,17.17
2017-11-06T10:52:26.981Z,18.53
2017-11-06T10:54:57.760Z,15.70
2017-11-06T10:57:28.524Z,17.23
2017-11-06T10:59:59.285Z,17.20
2017-11-06T11:02:30.060Z,13.63
2017-11-06T11:05:00.837Z,15.57
2017-11-06T11:07:31.612Z,13.17
2017-11-06T11:10:02.357Z,13.33
2017-11-06T11:12:33.136Z,12.53
2017-11-06T11:15:03.900Z,11.03
2017-11-06T11:17:34.691Z,11.70
2017-11-06T11:20:05.444Z,10.40
2017-11-06T11:22:36.192Z,10.90
2017-11-06T11:25:06.973Z,13.83
2017-11-06T11:27:37.721Z,11.70
2017-11-06T11:30:08.528Z,11.13
2017-11-06T11:32:39.271Z,11.83
2017-11-06T11:35:10.042Z,8.37
2017-11-06T11:37:40.826Z,10.17
2017-11-06T11:40:11.569Z,8.93
2017-11-06T11:42:42.345Z,8.40
2017-11-06T11:45:13.111Z,8.07
2017-11-06T11:47:43.857Z,9.20
2017-11-06T11:50:14.621Z,7.50
2017-11-06T11:52:45.406Z,7.50
2017-11-06T11:55:16.153Z,7.13
2017-11-06T11:57:46.923Z,7.20
2017-11-06T12:00:17.701Z,8.03
2017-11-06T12:02:48.451Z,7.20
2017-11-06T12:05:19.241Z,7.63
2017-11-06T12:07:50.005Z,6.97
2017-11-06T12:10:20.785Z,7.53
2017-11-06T12:12:51.539Z,6.90
2017-11-06T12:15:22.308Z,6.70
2017-11-06T12:17:53.082Z,8.23
2017-11-06T12:20:23.836Z,6.93
2017-11-06T12:22:54.623Z,8.93
2017-11-06T12:25:25.381Z,6.70
2017-11-06T12:27:56.139Z,6.20
2017-11-06T12:30:26.907Z,6.33
2017-11-06T12:32:57.766Z,6.67
2017-11-06T12:35:28.533Z,7.17
2017-11-06T12:37:59.294Z,5.90
2017-11-06T12:40:30.044Z,7.53
2017-11-06T12:43:00.812Z,5.90
2017-11-06T12:45:31.563Z,6.33
2017-11-06T12:48:02.328Z,5.60
2017-11-06T12:50:33.081Z,5.93
2017-11-06T12:53:03.860Z,5.30
2017-11-06T12:55:34.604Z,6.03
2017-11-06T12:58:05.372Z,5.37
2017-11-06T13:00:36.137Z,5.67
2017-11-06T13:03:06.923Z,5.77
2017-11-06T13:05:37.721Z,5.07
2017-11-06T13:08:08.461Z,5.00
2017-11-06T13:10:39.237Z,5.70
2017-11-06T13:13:10.008Z,5.33
2017-11-06T13:15:40.777Z,5.43
2017-11-06T13:18:11.552Z,4.60
2017-11-06T13:20:42.301Z,4.70
2017-11-06T13:23:13.063Z,4.70
2017-11-06T13:25:43.813Z,5.00
2017-11-06T13:28:14.591Z,4.73
2017-11-06T13:30:45.328Z,4.40
2017-11-06T13:33:16.108Z,4.77
2017-11-06T13:35:46.861Z,4.63
2017-11-06T13:38:17.633Z,5.23
2017-11-06T13:40:48.409Z,4.27
2017-11-06T13:43:19.145Z,4.40
2017-11-06T13:45:49.918Z,4.27
2017-11-06T13:48:20.676Z,4.57
2017-11-06T13:50:51.461Z,4.10
2017-11-06T13:53:22.244Z,4.57
2017-11-06T13:55:53.028Z,4.83
2017-11-06T13:58:23.789Z,4.73
2017-11-06T14:00:54.570Z,3.87
2017-11-06T14:03:25.321Z,4.13
2017-11-06T14:05:56.089Z,5.00
2017-11-06T14:08:26.840Z,4.47
2017-11-06T14:10:58.011Z,4.80
2017-11-06T14:13:28.753Z,4.17
2017-11-06T14:15:59.539Z,4.23
2017-11-06T14:18:30.296Z,4.47
2017-11-06T14:21:01.060Z,4.03
2017-11-06T14:23:31.832Z,4.10
2017-11-06T14:26:02.589Z,4.47
2017-11-06T14:28:33.356Z,3.77
2017-11-06T14:31:04.111Z,3.97
2017-11-06T14:33:34.877Z,4.20
2017-11-06T14:36:05.653Z,3.83
2017-11-06T14:38:36.422Z,3.97
2017-11-06T14:41:07.192Z,4.30
2017-11-06T14:43:37.957Z,3.70
2017-11-06T14:46:08.753Z,4.13
2017-11-06T14:48:39.512Z,3.87
2017-11-06T14:51:10.269Z,4.17
2017-11-06T14:53:41.049Z,3.93
2017-11-06T14:56:11.817Z,3.90
2017-11-06T14:58:42.552Z,3.90
2017-11-06T15:01:13.320Z,3.70
2017-11-06T15:03:44.064Z,3.90
2017-11-06T15:06:14.834Z,4.13
2017-11-06T15:08:45.588Z,3.77
2017-11-06T15:11:16.360Z,4.47
2017-11-06T15:13:47.142Z,3.87
2017-11-06T15:16:17.885Z,4.20
2017-11-06T15:18:48.649Z,3.87
2017-11-06T15:21:19.424Z,4.00
2017-11-06T15:23:50.213Z,4.20
2017-11-06T15:26:20.969Z,4.30
2017-11-06T15:28:51.733Z,3.97
2017-11-06T15:31:22.496Z,4.20
2017-11-06T15:33:53.275Z,3.97
2017-11-06T15:36:24.062Z,3.70
2017-11-06T15:38:54.832Z,4.00
2017-11-06T15:41:25.614Z,3.80
2017-11-06T15:43:56.360Z,4.73
2017-11-06T15:46:27.134Z,3.93
2017-11-06T15:48:57.892Z,3.90
2017-11-06T15:51:28.689Z,3.67
2017-11-06T15:53:59.433Z,4.03
2017-11-06T15:56:30.213Z,4.00
2017-11-06T15:59:01.021Z,4.20
2017-11-06T16:01:31.796Z,4.17
2017-11-06T16:04:02.553Z,3.90
2017-11-06T16:06:33.311Z,3.83
2017-11-06T16:09:04.081Z,4.17
2017-11-06T16:11:34.836Z,3.43
2017-11-06T16:14:05.615Z,3.67
2017-11-06T16:16:36.372Z,3.43
2017-11-06T16:19:07.149Z,3.50
2017-11-06T16:21:37.921Z,4.03
2017-11-06T16:24:08.673Z,3.57
2017-11-06T16:26:39.456Z,3.80
2017-11-06T16:29:10.200Z,3.57
2017-11-06T16:31:40.972Z,3.70
2017-11-06T16:34:11.741Z,3.37
2017-11-06T16:36:42.501Z,3.17
2017-11-06T16:39:13.254Z,3.53
2017-11-06T16:41:44.016Z,3.50
2017-11-06T16:44:14.776Z,3.40
2017-11-06T16:46:45.554Z,3.53
2017-11-06T16:49:16.411Z,3.50
2017-11-06T16:51:47.165Z,3.33
2017-11-06T16:54:17.932Z,3.00
2017-11-06T16:56:48.709Z,3.40
2017-11-06T16:59:19.468Z,3.60
2017-11-06T17:01:50.261Z,3.20
2017-11-06T17:04:21.021Z,3.00
2017-11-06T17:06:51.802Z,3.03
2017-11-06T17:09:22.575Z,3.03
2017-11-06T17:11:53.333Z,3.30
2017-11-06T17:14:24.101Z,2.87
2017-11-06T17:16:54.854Z,3.30
2017-11-06T17:19:25.620Z,3.53
2017-11-06T17:21:56.391Z,4.13
2017-11-06T17:24:27.137Z,3.37
2017-11-06T17:26:57.908Z,3.40
2017-11-06T17:29:28.656Z,3.20
2017-11-06T17:31:59.444Z,3.20
2017-11-06T17:34:30.229Z,2.90
2017-11-06T17:37:01.020Z,3.00
2017-11-06T17:39:31.776Z,3.00
2017-11-06T17:42:02.552Z,3.00
2017-11-06T17:44:33.297Z,2.63
2017-11-06T17:47:04.060Z,3.40
2017-11-06T17:49:34.808Z,2.70
2017-11-06T17:52:05.577Z,3.07
2017-11-06T17:54:36.320Z,2.93
2017-11-06T17:57:07.089Z,3.57
2017-11-06T17:59:37.852Z,2.90
2017-11-06T18:02:08.640Z,2.80
2017-11-06T18:04:39.400Z,4.00
2017-11-06T18:07:10.183Z,3.10
2017-11-06T18:09:40.925Z,3.23
2017-11-06T18:12:11.697Z,2.93
2017-11-06T18:14:42.481Z,3.63
2017-11-06T18:17:13.240Z,3.33
2017-11-06T18:19:43.993Z,2.90
2017-11-06T18:22:14.797Z,2.90
2017-11-06T18:24:45.554Z,3.13
2017-11-06T18:27:16.314Z,3.17
2017-11-06T18:29:47.084Z,3.17
2017-11-06T18:32:17.865Z,3.07
2017-11-06T18:34:48.652Z,3.50
2017-11-06T18:37:19.485Z,3.30
2017-11-06T18:39:50.236Z,2.90
2017-11-06T18:42:20.987Z,2.90
2017-11-06T18:44:51.748Z,3.97
2017-11-06T18:47:22.537Z,3.07
2017-11-06T18:49:53.341Z,2.97
2017-11-06T18:52:24.071Z,3.07
2017-11-06T18:54:54.840Z,3.40
2017-11-06T18:57:25.636Z,3.33
2017-11-06T18:59:56.410Z,3.00
2017-11-06T19:02:27.167Z,2.70
2017-11-06T19:04:57.941Z,3.53
2017-11-06T19:07:28.705Z,3.50
2017-11-06T19:09:59.449Z,3.20
2017-11-06T19:12:30.241Z,3.40
2017-11-06T19:15:01.017Z,3.10
2017-11-06T19:17:31.784Z,3.00
2017-11-06T19:20:02.536Z,3.67
2017-11-06T19:22:33.306Z,3.53
2017-11-06T19:25:04.081Z,3.43
2017-11-06T19:27:34.917Z,3.30
2017-11-06T19:30:05.679Z,3.00
2017-11-06T19:32:36.436Z,3.57
2017-11-06T19:35:07.190Z,2.87
2017-11-06T19:37:37.965Z,3.03
2017-11-06T19:40:08.730Z,3.23
2017-11-06T19:42:39.502Z,3.20
2017-11-06T19:45:10.288Z,3.90
2017-11-06T19:47:41.040Z,3.93
2017-11-06T19:50:11.820Z,3.60
2017-11-06T19:52:42.584Z,3.37
2017-11-06T19:55:13.363Z,2.67
2017-11-06T19:57:44.112Z,3.07
2017-11-06T20:00:14.891Z,3.50
2017-11-06T20:02:45.677Z,3.10
2017-11-06T20:05:16.428Z,3.37
2017-11-06T20:07:47.212Z,3.30
2017-11-06T20:10:17.972Z,3.27
2017-11-06T20:12:48.720Z,2.80
2017-11-06T20:15:19.493Z,3.10
2017-11-06T20:17:50.300Z,3.27
2017-11-06T20:20:21.038Z,3.37
2017-11-06T20:22:51.801Z,3.10
2017-11-06T20:25:22.562Z,3.10
2017-11-06T20:27:53.336Z,3.13
2017-11-06T20:30:24.094Z,3.20
2017-11-06T20:32:54.883Z,3.63
2017-11-06T20:35:25.648Z,2.90
2017-11-06T20:37:56.421Z,3.03
2017-11-06T20:40:27.156Z,3.13
2017-11-06T20:42:57.970Z,3.40
2017-11-06T20:45:28.709Z,2.83
2017-11-06T20:47:59.508Z,3.33
2017-11-06T20:50:30.261Z,4.17
2017-11-06T20:53:01.039Z,3.40
2017-11-06T20:55:31.789Z,3.53
2017-11-06T20:58:02.552Z,3.47
2017-11-06T21:00:33.334Z,3.07
2017-11-06T21:03:04.132Z,3.00
2017-11-06T21:05:34.897Z,2.90
2017-11-06T21:08:05.719Z,3.30
2017-11-06T21:10:36.494Z,3.20
2017-11-06T21:13:07.253Z,2.93
2017-11-06T21:15:38.031Z,3.10
2017-11-06T21:18:08.800Z,3.20
2017-11-06T21:20:39.562Z,3.53
2017-11-06T21:23:10.339Z,3.10
2017-11-06T21:25:41.084Z,3.20
2017-11-06T21:28:12.252Z,3.00
2017-11-06T21:30:43.005Z,3.13
2017-11-06T21:33:13.824Z,3.47
2017-11-06T21:35:44.573Z,3.23
2017-11-06T21:38:15.321Z,3.00
2017-11-06T21:40:46.072Z,2.70
2017-11-06T21:43:16.838Z,3.20
2017-11-06T21:45:47.597Z,3.10
2017-11-06T21:48:18.365Z,3.30
2017-11-06T21:50:49.151Z,3.07
2017-11-06T21:53:19.921Z,3.20
2017-11-06T21:55:50.672Z,3.20
2017-11-06T21:58:21.481Z,3.40
2017-11-06T22:00:52.230Z,3.10
2017-11-06T22:03:23.012Z,2.90
2017-11-06T22:05:53.790Z,2.90
2017-11-06T22:08:24.549Z,3.10
2017-11-06T22:10:55.333Z,3.50
2017-11-06T22:13:26.120Z,3.00
2017-11-06T22:15:56.893Z,3.10
2017-11-06T22:18:27.645Z,3.37
2017-11-06T22:20:58.420Z,3.20
2017-11-06T22:23:29.187Z,3.00
2017-11-06T22:25:59.952Z,2.93
2017-11-06T22:28:30.714Z,3.23
2017-11-06T22:31:01.474Z,3.37
2017-11-06T22:33:32.232Z,3.40
2017-11-06T22:36:03.015Z,3.07
2017-11-06T22:38:33.756Z,3.17
2017-11-06T22:41:04.526Z,3.63
2017-11-06T22:43:35.279Z,3.03
2017-11-06T22:46:06.039Z,3.00
2017-11-06T22:48:36.816Z,3.93
2017-11-06T22:51:07.607Z,3.10
2017-11-06T22:53:38.380Z,2.90
2017-11-06T22:56:09.144Z,2.90
2017-11-06T22:58:39.933Z,3.03
2017-11-06T23:01:10.698Z,3.10
2017-11-06T23:03:41.473Z,3.33
2017-11-06T23:06:12.245Z,2.93
2017-11-06T23:08:43.008Z,2.70
2017-11-06T23:11:13.786Z,2.80
2017-11-06T23:13:44.579Z,3.07
2017-11-06T23:16:15.353Z,3.00
2017-11-06T23:18:46.133Z,3.17
2017-11-06T23:21:16.888Z,2.70
2017-11-06T23:23:47.697Z,2.93
2017-11-06T23:26:18.453Z,2.90
2017-11-06T23:28:49.208Z,3.13
2017-11-06T23:31:19.989Z,3.10
2017-11-06T23:33:50.748Z,3.00
2017-11-06T23:36:21.509Z,2.90
2017-11-06T23:38:52.301Z,2.90
2017-11-06T23:41:23.060Z,3.00
2017-11-06T23:43:53.825Z,2.83
2017-11-06T23:46:24.572Z,2.93
2017-11-06T23:48:55.340Z,3.03
2017-11-06T23:51:26.096Z,3.00
2017-11-06T23:53:56.864Z,3.97
2017-11-06T23:56:27.628Z,3.00
2017-11-06T23:58:58.396Z,2.70
